Time;durP1;ratioP1;P1;durP2;ratioP2;P2;SDS_P1;SDS_P2;PMS_P1;PMS_P2;Temp;Humidity;BMP_temperature;BMP_pressure;BME280_temperature;BME280_humidity;BME280_pressure;Samples;Min_cycle;Max_cycle;Signal;HPM_P1;HPM_P2
2023/03/29 00:02:13;;;;;;;9.63;5.87;;;8.10;66.60;;;;;;5094080;28;20209;-61
2023/03/29 00:04:40;;;;;;;9.70;6.00;;;8.00;66.20;;;;;;5094473;28;20209;-63
2023/03/29 00:07:08;;;;;;;10.17;6.07;;;7.90;65.80;;;;;;5095540;28;20193;-63
2023/03/29 00:09:35;;;;;;;8.30;5.47;;;7.90;65.70;;;;;;5095266;28;20231;-62
2023/03/29 00:12:02;;;;;;;8.27;5.50;;;7.90;65.50;;;;;;5093813;28;20214;-63
2023/03/29 00:14:29;;;;;;;9.53;6.10;;;7.80;65.60;;;;;;5094994;28;20657;-63
2023/03/29 00:16:57;;;;;;;7.70;5.53;;;7.80;66.30;;;;;;5094044;28;20189;-62
2023/03/29 00:19:24;;;;;;;6.83;5.53;;;7.80;67.00;;;;;;5092647;28;20209;-62
2023/03/29 00:21:51;;;;;;;8.63;5.60;;;7.80;67.20;;;;;;5092678;28;20194;-62
2023/03/29 00:24:19;;;;;;;8.73;6.03;;;7.70;66.80;;;;;;5092994;28;20226;-62
2023/03/29 00:26:47;;;;;;;8.47;5.97;;;7.70;66.50;;;;;;5092958;28;20201;-63
2023/03/29 00:29:15;;;;;;;7.67;5.87;;;7.60;65.60;;;;;;5091515;28;20209;-62
2023/03/29 00:31:51;;;;;;;10.13;6.20;;;7.60;66.00;;;;;;5091070;28;20225;-62
2023/03/29 00:34:22;;;;;;;10.33;6.53;;;7.50;66.30;;;;;;5088886;28;20274;-62
2023/03/29 00:36:49;;;;;;;7.73;6.07;;;7.60;66.00;;;;;;5093628;28;20203;-62
2023/03/29 00:39:18;;;;;;;9.07;6.90;;;7.50;66.70;;;;;;5091096;28;20626;-62
2023/03/29 00:41:46;;;;;;;9.10;6.73;;;7.50;67.30;;;;;;5090088;28;20633;-62
2023/03/29 00:45:16;;;;;;;10.00;6.37;;;7.50;68.00;;;;;;5093005;28;20204;-62
2023/03/29 00:47:56;;;;;;;8.47;6.37;;;7.60;68.90;;;;;;5092544;28;20213;-63
2023/03/29 00:50:31;;;;;;;10.47;7.20;;;7.60;69.10;;;;;;5105324;27;20207;-62
2023/03/29 00:53:13;;;;;;;11.03;7.20;;;7.60;69.30;;;;;;5092208;28;20229;-64
2023/03/29 00:55:51;;;;;;;10.33;7.27;;;7.60;69.60;;;;;;5106364;28;20209;-62
2023/03/29 00:58:25;;;;;;;11.23;7.53;;;7.70;69.70;;;;;;5092166;28;20286;-62
2023/03/29 01:01:04;;;;;;;11.20;6.80;;;7.70;69.50;;;;;;5088677;28;20216;-62
2023/03/29 01:03:40;;;;;;;14.63;7.10;;;7.80;69.30;;;;;;5093043;28;20216;-62
2023/03/29 01:06:09;;;;;;;8.90;6.40;;;7.80;69.60;;;;;;5109828;28;20292;-62
2023/03/29 01:08:58;;;;;;;12.40;6.70;;;7.80;69.50;;;;;;5092198;28;20240;-62
2023/03/29 01:11:38;;;;;;;10.93;6.83;;;7.90;69.00;;;;;;5106320;28;20210;-62
2023/03/29 01:14:22;;;;;;;12.27;7.43;;;7.90;68.20;;;;;;5093046;28;20206;-62
2023/03/29 01:16:49;;;;;;;9.83;7.20;;;7.90;67.30;;;;;;5093186;28;20204;-62
2023/03/29 01:19:20;;;;;;;9.17;7.37;;;7.90;67.80;;;;;;5076439;28;20201;-62
2023/03/29 01:22:03;;;;;;;9.07;7.27;;;7.90;68.70;;;;;;5092071;28;20193;-62
2023/03/29 01:24:56;;;;;;;13.13;7.53;;;7.90;69.00;;;;;;5091093;28;20514;-62
2023/03/29 01:28:01;;;;;;;11.20;7.20;;;8.00;69.20;;;;;;5085402;28;20540;-63
2023/03/29 01:31:11;;;;;;;11.97;6.63;;;8.00;70.10;;;;;;5091995;28;20197;-62
2023/03/29 01:33:43;;;;;;;11.87;6.63;;;8.00;70.70;;;;;;5090129;28;20560;-63
2023/03/29 01:36:22;;;;;;;9.27;6.93;;;8.00;71.10;;;;;;5091420;28;20225;-62
2023/03/29 01:38:55;;;;;;;9.03;6.90;;;8.10;70.70;;;;;;5086933;28;20193;-62
2023/03/29 01:41:33;;;;;;;14.93;7.13;;;8.10;71.00;;;;;;5090190;28;20208;-62
2023/03/29 01:44:17;;;;;;;11.93;7.20;;;8.20;71.40;;;;;;5077244;28;20203;-63
2023/03/29 01:46:46;;;;;;;8.93;6.93;;;8.20;71.50;;;;;;5092395;28;20202;-62
2023/03/29 01:49:36;;;;;;;11.37;7.60;;;8.20;71.60;;;;;;5090292;28;20211;-62
2023/03/29 01:52:50;;;;;;;13.67;7.07;;;8.20;70.80;;;;;;5092592;28;20216;-62
2023/03/29 01:55:22;;;;;;;12.43;8.83;;;8.30;70.40;;;;;;5089859;28;20689;-63
2023/03/29 01:57:53;;;;;;;12.93;7.30;;;8.30;69.70;;;;;;5091236;28;20669;-62
2023/03/29 02:00:24;;;;;;;11.40;7.03;;;8.30;68.70;;;;;;5093385;28;20228;-62
2023/03/29 02:02:55;;;;;;;8.27;6.60;;;8.30;68.10;;;;;;5091903;28;20226;-62
2023/03/29 02:05:25;;;;;;;9.00;7.10;;;8.40;68.50;;;;;;5090328;28;20207;-62
2023/03/29 02:07:59;;;;;;;8.60;7.17;;;8.40;68.80;;;;;;5103709;28;20201;-62
2023/03/29 02:10:26;;;;;;;8.53;7.10;;;8.40;69.10;;;;;;5106776;28;20603;-62
2023/03/29 02:12:54;;;;;;;8.70;6.97;;;8.40;69.60;;;;;;5093895;28;20234;-62
2023/03/29 02:15:22;;;;;;;9.40;7.17;;;8.40;70.00;;;;;;5090857;28;20296;-62
2023/03/29 02:17:50;;;;;;;11.73;7.70;;;8.40;70.00;;;;;;5091473;28;20194;-62
2023/03/29 02:20:37;;;;;;;8.80;7.13;;;8.40;70.50;;;;;;5090250;28;20281;-63
2023/03/29 02:23:23;;;;;;;9.53;7.57;;;8.40;70.90;;;;;;5105868;28;20202;-63
2023/03/29 02:25:55;;;;;;;10.43;7.30;;;8.40;70.60;;;;;;5091333;28;20270;-63
2023/03/29 02:28:25;;;;;;;10.97;7.47;;;8.40;70.40;;;;;;5090706;28;20622;-62
2023/03/29 02:31:03;;;;;;;11.53;7.03;;;8.40;70.50;;;;;;5089463;28;20644;-63
2023/03/29 02:33:45;;;;;;;8.00;5.93;;;8.50;70.30;;;;;;5090137;28;20397;-62
2023/03/29 02:36:30;;;;;;;11.43;7.67;;;8.50;70.10;;;;;;5084196;28;20565;-63
2023/03/29 02:39:00;;;;;;;9.43;6.97;;;8.50;69.90;;;;;;5106028;28;20210;-62
2023/03/29 02:41:28;;;;;;;15.33;6.87;;;8.50;69.70;;;;;;5092116;28;20275;-63
2023/03/29 02:43:57;;;;;;;10.83;7.17;;;8.50;70.20;;;;;;5092478;28;20293;-63
2023/03/29 02:46:24;;;;;;;7.97;7.07;;;8.50;70.20;;;;;;5091574;28;20638;-62
2023/03/29 02:48:53;;;;;;;6.97;6.13;;;8.50;70.00;;;;;;5090717;28;20205;-62
2023/03/29 02:51:25;;;;;;;9.07;7.30;;;8.50;69.70;;;;;;5089926;28;20223;-62
2023/03/29 02:53:59;;;;;;;9.53;6.60;;;8.50;69.50;;;;;;5090377;28;20196;-63
2023/03/29 02:56:26;;;;;;;8.77;6.60;;;8.50;69.40;;;;;;5098591;28;20202;-63
2023/03/29 02:58:53;;;;;;;13.30;7.67;;;8.50;69.20;;;;;;5091028;28;20642;-62
2023/03/29 03:01:21;;;;;;;7.77;6.50;;;8.50;68.70;;;;;;5091812;28;20203;-62
2023/03/29 03:03:50;;;;;;;7.60;6.17;;;8.40;68.40;;;;;;5081131;28;20504;-62
2023/03/29 03:06:20;;;;;;;9.83;6.70;;;8.40;68.50;;;;;;5087377;28;20279;-62
2023/03/29 03:08:47;;;;;;;9.87;6.27;;;8.40;68.80;;;;;;5110368;28;20211;-62
2023/03/29 03:11:14;;;;;;;9.17;6.77;;;8.30;68.80;;;;;;5088828;28;20206;-62
2023/03/29 03:13:41;;;;;;;8.80;6.47;;;8.40;68.90;;;;;;5095057;28;20197;-62
2023/03/29 03:16:09;;;;;;;11.93;6.53;;;8.30;69.00;;;;;;5086989;28;20315;-62
2023/03/29 03:18:36;;;;;;;9.57;6.60;;;8.30;69.00;;;;;;5095565;28;20201;-62
2023/03/29 03:21:04;;;;;;;10.07;7.30;;;8.30;68.80;;;;;;5095100;28;20220;-62
2023/03/29 03:23:31;;;;;;;8.53;6.63;;;8.30;69.40;;;;;;5086309;28;20220;-62
2023/03/29 03:25:58;;;;;;;9.20;6.63;;;8.30;70.10;;;;;;5088251;28;20212;-62
2023/03/29 03:28:26;;;;;;;8.87;6.53;;;8.30;70.70;;;;;;5090954;28;20211;-63
2023/03/29 03:30:54;;;;;;;7.43;6.37;;;8.30;71.70;;;;;;5084486;28;20205;-62
2023/03/29 03:33:51;;;;;;;8.77;6.70;;;8.40;72.40;;;;;;5093070;28;20293;-62
2023/03/29 03:36:33;;;;;;;8.87;6.30;;;8.40;72.80;;;;;;5104673;28;20226;-62
2023/03/29 03:39:04;;;;;;;8.90;6.60;;;8.40;73.30;;;;;;5098863;28;20549;-62
2023/03/29 03:41:33;;;;;;;8.90;6.93;;;8.40;73.60;;;;;;5088524;28;20229;-62
2023/03/29 03:44:00;;;;;;;6.93;6.03;;;8.30;73.50;;;;;;5094274;28;20599;-63
2023/03/29 03:46:27;;;;;;;7.70;6.33;;;8.30;73.50;;;;;;5095094;28;20261;-62
2023/03/29 03:48:57;;;;;;;9.07;6.37;;;8.40;73.80;;;;;;5108672;28;20266;-62
2023/03/29 03:51:33;;;;;;;6.70;6.03;;;8.40;73.80;;;;;;5095440;28;20614;-62
2023/03/29 03:54:00;;;;;;;8.83;6.13;;;8.40;73.80;;;;;;5091726;28;20405;-64
2023/03/29 03:56:50;;;;;;;6.63;5.93;;;8.40;73.80;;;;;;5075719;28;20771;-63
2023/03/29 03:59:38;;;;;;;7.33;5.93;;;8.40;73.60;;;;;;5090693;28;20205;-62
2023/03/29 04:02:10;;;;;;;7.53;6.53;;;8.40;73.60;;;;;;5092727;28;20700;-63
2023/03/29 04:04:39;;;;;;;6.77;5.80;;;8.40;73.60;;;;;;5093655;28;20206;-62
2023/03/29 04:07:16;;;;;;;7.00;6.30;;;8.40;73.60;;;;;;5106618;28;20211;-62
2023/03/29 04:09:55;;;;;;;12.17;6.17;;;8.30;73.40;;;;;;5095234;28;20191;-63
2023/03/29 04:12:41;;;;;;;7.97;5.80;;;8.30;73.60;;;;;;5110080;28;20301;-62
2023/03/29 04:15:09;;;;;;;7.57;5.40;;;8.20;73.60;;;;;;5094359;28;20211;-62
2023/03/29 04:17:39;;;;;;;9.00;5.47;;;8.20;73.60;;;;;;5090587;28;20199;-62
2023/03/29 04:20:17;;;;;;;10.60;5.87;;;8.20;73.50;;;;;;5090583;28;20206;-61
2023/03/29 04:22:44;;;;;;;7.40;6.27;;;8.10;73.10;;;;;;5094560;28;20232;-62
2023/03/29 04:25:12;;;;;;;9.93;5.30;;;8.10;73.10;;;;;;5100936;28;20252;-62
2023/03/29 04:27:49;;;;;;;8.70;5.97;;;8.10;72.90;;;;;;5093741;28;20202;-62
2023/03/29 04:30:35;;;;;;;7.37;5.67;;;8.10;72.70;;;;;;5088328;28;20277;-63
2023/03/29 04:33:11;;;;;;;10.80;6.17;;;8.00;72.10;;;;;;5093421;28;20649;-62
2023/03/29 04:35:41;;;;;;;9.47;5.60;;;8.00;72.00;;;;;;5091124;28;20219;-62
2023/03/29 04:38:12;;;;;;;8.50;5.70;;;8.00;72.60;;;;;;5093759;28;20224;-62
2023/03/29 04:40:42;;;;;;;8.17;5.87;;;8.00;72.90;;;;;;5091691;28;20305;-62
2023/03/29 04:43:46;;;;;;;7.70;5.80;;;8.00;73.20;;;;;;5090831;28;20289;-62
2023/03/29 04:46:24;;;;;;;8.50;6.77;;;8.00;73.90;;;;;;5089845;28;20225;-62
2023/03/29 04:49:10;;;;;;;12.13;6.10;;;7.90;74.00;;;;;;5091513;28;20212;-62
2023/03/29 04:51:40;;;;;;;9.23;5.60;;;7.90;74.40;;;;;;5086717;28;20207;-62
2023/03/29 04:54:08;;;;;;;8.97;6.30;;;7.90;74.50;;;;;;5079863;28;20216;-62
2023/03/29 04:57:01;;;;;;;9.77;6.27;;;7.80;74.40;;;;;;5091294;28;20339;-63
2023/03/29 04:59:48;;;;;;;7.37;6.13;;;7.80;74.40;;;;;;5093391;28;20221;-62
2023/03/29 05:02:31;;;;;;;11.47;6.03;;;7.80;74.30;;;;;;5093635;28;20205;-62
2023/03/29 05:04:59;;;;;;;9.83;5.73;;;7.80;74.60;;;;;;5091771;28;20219;-62
2023/03/29 05:07:26;;;;;;;11.53;6.57;;;7.80;74.90;;;;;;5104028;28;20233;-62
2023/03/29 05:09:53;;;;;;;8.80;6.53;;;7.80;75.20;;;;;;5094226;28;20538;-62
2023/03/29 05:12:21;;;;;;;6.97;5.40;;;7.80;75.20;;;;;;5093689;28;20646;-62
2023/03/29 05:14:52;;;;;;;7.93;5.80;;;7.80;75.00;;;;;;5091644;28;20596;-61
2023/03/29 05:17:25;;;;;;;11.63;6.07;;;7.80;75.00;;;;;;5086904;28;20640;-62
2023/03/29 05:19:55;;;;;;;11.33;6.67;;;7.80;75.20;;;;;;5085005;28;20216;-62
2023/03/29 05:22:24;;;;;;;8.63;5.70;;;7.80;75.10;;;;;;5093839;28;20288;-62
2023/03/29 05:24:51;;;;;;;8.57;6.27;;;7.80;75.00;;;;;;5092425;28;20214;-62
2023/03/29 05:27:21;;;;;;;10.40;6.60;;;7.80;74.90;;;;;;5093666;28;20208;-62
2023/03/29 05:30:00;;;;;;;10.60;7.03;;;7.80;75.00;;;;;;5087828;28;20631;-62
2023/03/29 05:32:36;;;;;;;9.47;6.83;;;7.80;75.10;;;;;;5092059;28;20571;-63
2023/03/29 05:35:04;;;;;;;11.20;7.93;;;7.80;75.60;;;;;;5092163;28;20252;-62
2023/03/29 05:37:33;;;;;;;9.73;6.47;;;7.80;76.20;;;;;;5092169;28;20231;-62
2023/03/29 05:40:08;;;;;;;12.67;6.13;;;7.70;76.60;;;;;;5091737;28;20233;-63
2023/03/29 05:42:58;;;;;;;9.23;6.53;;;7.80;77.10;;;;;;5079707;28;20205;-61
2023/03/29 05:45:27;;;;;;;13.87;6.97;;;7.80;77.10;;;;;;5093090;28;20611;-62
2023/03/29 05:47:56;;;;;;;12.03;7.17;;;7.90;77.10;;;;;;5091210;28;20197;-62
2023/03/29 05:50:23;;;;;;;11.23;7.37;;;7.90;77.10;;;;;;5094030;28;20313;-62
2023/03/29 05:52:51;;;;;;;9.47;6.67;;;7.90;77.20;;;;;;5090851;28;20231;-62
2023/03/29 05:55:18;;;;;;;9.10;5.77;;;8.00;77.10;;;;;;5092129;28;20559;-62
2023/03/29 05:57:45;;;;;;;9.57;7.03;;;8.00;76.90;;;;;;5084220;28;20194;-62
2023/03/29 06:00:20;;;;;;;13.63;5.80;;;8.10;76.90;;;;;;5089716;28;20206;-62
2023/03/29 06:02:51;;;;;;;9.30;5.57;;;8.10;76.90;;;;;;5087739;28;20240;-62
2023/03/29 06:05:20;;;;;;;8.40;6.63;;;8.10;76.60;;;;;;5090172;28;20657;-62
2023/03/29 06:07:57;;;;;;;11.53;5.17;;;8.20;76.20;;;;;;5095217;28;20208;-62
2023/03/29 06:10:47;;;;;;;7.83;4.23;;;8.20;76.00;;;;;;5091246;28;20628;-62
2023/03/29 06:13:27;;;;;;;7.93;4.20;;;8.30;75.80;;;;;;5077254;28;20205;-62
2023/03/29 06:15:54;;;;;;;6.77;3.80;;;8.30;75.80;;;;;;5090867;28;20848;-62
2023/03/29 06:18:24;;;;;;;7.53;4.13;;;8.50;75.80;;;;;;5083565;28;20536;-62
2023/03/29 06:20:51;;;;;;;7.73;4.03;;;8.80;74.90;;;;;;5090752;28;20205;-62
2023/03/29 06:23:20;;;;;;;8.37;5.00;;;9.00;74.00;;;;;;5091150;28;20193;-62
2023/03/29 06:25:50;;;;;;;6.37;3.87;;;9.40;73.20;;;;;;5092809;28;20205;-62
2023/03/29 06:28:18;;;;;;;6.77;3.77;;;9.70;72.00;;;;;;5090792;28;20215;-62
2023/03/29 06:30:46;;;;;;;6.97;3.70;;;9.80;71.60;;;;;;5089904;28;20234;-62
2023/03/29 06:33:13;;;;;;;6.27;4.33;;;9.90;71.80;;;;;;5089251;28;20582;-62
2023/03/29 06:36:02;;;;;;;9.13;3.70;;;10.00;72.20;;;;;;5089308;28;20367;-63
2023/03/29 06:38:30;;;;;;;9.50;4.67;;;10.00;72.50;;;;;;5089178;28;20205;-62
2023/03/29 06:41:05;;;;;;;7.73;3.73;;;10.10;72.70;;;;;;5090089;28;20533;-63
2023/03/29 06:44:11;;;;;;;8.30;3.97;;;10.10;72.70;;;;;;5093799;28;20231;-62
2023/03/29 06:46:52;;;;;;;5.63;3.57;;;10.30;73.10;;;;;;5092659;28;20220;-62
2023/03/29 06:49:20;;;;;;;5.30;3.23;;;10.40;72.90;;;;;;5092097;28;20668;-62
2023/03/29 06:52:16;;;;;;;5.00;4.10;;;10.50;72.50;;;;;;5079145;28;20212;-62
2023/03/29 06:54:45;;;;;;;8.00;4.40;;;10.70;72.10;;;;;;5094274;28;20210;-62
2023/03/29 06:57:12;;;;;;;5.07;3.53;;;10.80;71.80;;;;;;5094673;28;20243;-63
2023/03/29 06:59:39;;;;;;;5.37;3.63;;;10.90;71.20;;;;;;5093939;28;20205;-62
2023/03/29 07:02:20;;;;;;;11.87;4.73;;;10.90;69.80;;;;;;5095266;28;20192;-62
2023/03/29 07:04:55;;;;;;;6.63;4.60;;;11.10;69.30;;;;;;5086244;28;20203;-62
2023/03/29 07:07:36;;;;;;;5.97;3.73;;;11.10;69.10;;;;;;5095525;28;20204;-61
2023/03/29 07:10:13;;;;;;;6.77;4.27;;;11.20;69.30;;;;;;5109927;28;20211;-62
2023/03/29 07:12:59;;;;;;;7.13;4.80;;;11.40;69.00;;;;;;5095378;28;20682;-62
2023/03/29 07:15:28;;;;;;;5.70;4.00;;;11.50;68.60;;;;;;5095530;28;20222;-62
2023/03/29 07:18:13;;;;;;;6.43;4.20;;;11.60;68.40;;;;;;5097042;28;20288;-62
2023/03/29 07:20:41;;;;;;;9.80;3.90;;;11.70;67.30;;;;;;5096107;28;20683;-62
2023/03/29 07:23:09;;;;;;;6.20;4.37;;;11.80;66.90;;;;;;5094682;28;20207;-62
2023/03/29 07:25:37;;;;;;;6.43;4.17;;;11.90;66.70;;;;;;5094289;28;20209;-62
2023/03/29 07:28:05;;;;;;;6.33;4.00;;;12.00;66.20;;;;;;5078974;28;20204;-62
2023/03/29 07:30:33;;;;;;;6.80;4.10;;;12.10;65.70;;;;;;5095535;28;20210;-62
2023/03/29 07:33:15;;;;;;;5.27;4.77;;;12.20;65.30;;;;;;5079182;28;20214;-62
2023/03/29 07:35:48;;;;;;;7.93;4.43;;;12.30;65.10;;;;;;5111210;28;20215;-62
2023/03/29 07:38:15;;;;;;;6.80;4.70;;;12.50;64.80;;;;;;5090647;28;20279;-62
2023/03/29 07:40:47;;;;;;;7.93;4.27;;;12.50;63.90;;;;;;5108397;28;20240;-62
2023/03/29 07:43:33;;;;;;;6.03;3.97;;;12.70;63.40;;;;;;5094782;28;20258;-62
2023/03/29 07:46:04;;;;;;;4.17;3.53;;;12.80;62.40;;;;;;5081975;28;20242;-62
2023/03/29 07:48:35;;;;;;;5.07;4.00;;;12.90;61.20;;;;;;5105022;28;20220;-62
2023/03/29 07:51:06;;;;;;;4.50;3.90;;;13.00;61.00;;;;;;5094742;28;20264;-63
2023/03/29 07:53:44;;;;;;;5.80;4.50;;;13.20;60.70;;;;;;5093203;28;20228;-62
2023/03/29 07:56:29;;;;;;;7.27;4.37;;;13.30;61.10;;;;;;5092413;28;20298;-62
2023/03/29 07:59:20;;;;;;;8.63;4.43;;;13.40;60.70;;;;;;5084975;28;20223;-62
2023/03/29 08:02:00;;;;;;;5.97;4.43;;;13.50;60.70;;;;;;5094628;28;20193;-62
2023/03/29 08:04:34;;;;;;;5.10;4.00;;;13.70;60.40;;;;;;5092017;28;20196;-62
2023/03/29 08:07:17;;;;;;;7.70;5.03;;;13.90;60.10;;;;;;5093088;28;20636;-62
2023/03/29 08:10:07;;;;;;;5.83;4.53;;;14.00;59.10;;;;;;5093662;28;20546;-62
2023/03/29 08:12:57;;;;;;;6.67;5.30;;;14.10;59.20;;;;;;5090254;28;20546;-62
2023/03/29 08:15:37;;;;;;;7.33;5.43;;;14.30;58.50;;;;;;5092445;28;20320;-62
2023/03/29 08:18:17;;;;;;;7.67;5.13;;;14.50;56.40;;;;;;5092830;28;20223;-62
2023/03/29 08:20:44;;;;;;;8.60;5.40;;;14.50;56.90;;;;;;5092492;28;20739;-62
2023/03/29 08:23:11;;;;;;;7.00;5.23;;;14.50;57.30;;;;;;5094575;28;20203;-62
2023/03/29 08:25:59;;;;;;;7.20;5.43;;;14.50;56.30;;;;;;5093041;28;20223;-62
2023/03/29 08:28:26;;;;;;;6.33;5.40;;;14.60;57.00;;;;;;5094592;28;20553;-62
2023/03/29 08:30:54;;;;;;;7.50;4.97;;;14.70;57.00;;;;;;5084637;28;20198;-62
2023/03/29 08:33:21;;;;;;;6.83;5.20;;;14.90;56.90;;;;;;5091908;28;20204;-62
2023/03/29 08:35:59;;;;;;;9.90;5.73;;;15.00;57.20;;;;;;5091448;28;20224;-62
2023/03/29 08:38:30;;;;;;;7.93;5.83;;;15.10;56.70;;;;;;5094007;28;20195;-62
2023/03/29 08:40:57;;;;;;;6.43;5.20;;;15.10;57.40;;;;;;5090110;28;20208;-62
2023/03/29 08:43:55;;;;;;;6.70;5.50;;;15.30;56.70;;;;;;5094179;28;20546;-62
2023/03/29 08:46:47;;;;;;;7.43;5.57;;;15.40;55.90;;;;;;5093654;28;20237;-62
2023/03/29 08:49:37;;;;;;;6.93;5.50;;;15.50;55.60;;;;;;5108646;28;20204;-62
2023/03/29 08:52:33;;;;;;;6.20;5.30;;;15.60;55.90;;;;;;5089239;28;20379;-62
2023/03/29 08:55:36;;;;;;;6.40;5.40;;;15.80;55.30;;;;;;5094217;28;20216;-62
2023/03/29 08:58:36;;;;;;;29.63;12.60;;;16.10;54.90;;;;;;5078149;28;20220;-62
2023/03/29 09:01:07;;;;;;;7.70;6.67;;;16.30;53.90;;;;;;5087761;28;20251;-61
2023/03/29 09:03:51;;;;;;;9.77;6.37;;;16.40;54.00;;;;;;5093115;28;20518;-62
2023/03/29 09:06:31;;;;;;;6.23;5.40;;;16.50;53.90;;;;;;5098850;28;20296;-62
2023/03/29 09:09:16;;;;;;;16.80;11.17;;;16.60;54.40;;;;;;5091901;28;20634;-62
2023/03/29 09:12:02;;;;;;;10.53;8.27;;;16.70;52.80;;;;;;5092331;28;20217;-62
2023/03/29 09:14:42;;;;;;;6.80;5.63;;;16.70;51.00;;;;;;5079089;28;20548;-62
2023/03/29 09:17:37;;;;;;;6.27;5.50;;;16.70;52.30;;;;;;5099983;28;20221;-62
2023/03/29 09:20:48;;;;;;;6.63;5.93;;;16.80;52.60;;;;;;5091002;28;20214;-62
2023/03/29 09:23:37;;;;;;;11.47;5.67;;;16.90;51.80;;;;;;5071351;28;20208;-62
2023/03/29 09:26:31;;;;;;;6.50;5.80;;;17.20;51.00;;;;;;5093822;28;20647;-62
2023/03/29 09:29:39;;;;;;;6.20;5.10;;;17.40;50.90;;;;;;5088579;28;20357;-62
2023/03/29 09:32:27;;;;;;;6.03;5.27;;;17.60;49.90;;;;;;5108439;28;20206;-62
2023/03/29 09:35:22;;;;;;;6.57;5.67;;;17.80;48.60;;;;;;5102303;28;20233;-62
2023/03/29 09:37:52;;;;;;;6.73;5.30;;;18.00;47.70;;;;;;5087520;28;20227;-62
2023/03/29 09:40:41;;;;;;;7.67;6.57;;;18.00;47.70;;;;;;5093306;28;20196;-62
2023/03/29 09:43:24;;;;;;;6.83;5.60;;;18.00;47.30;;;;;;5109729;27;20202;-62
2023/03/29 09:45:56;;;;;;;6.80;5.67;;;18.20;47.50;;;;;;5080404;28;20327;-62
2023/03/29 09:48:25;;;;;;;9.17;5.60;;;18.30;48.00;;;;;;5092598;28;20205;-62
2023/03/29 09:50:56;;;;;;;6.47;5.20;;;18.40;47.20;;;;;;5092947;28;20204;-63
2023/03/29 09:53:23;;;;;;;6.27;5.13;;;18.50;46.40;;;;;;5092664;28;20207;-61
2023/03/29 09:56:07;;;;;;;5.43;4.93;;;18.60;45.90;;;;;;5092962;28;20685;-62
2023/03/29 09:58:45;;;;;;;7.50;5.80;;;18.60;45.00;;;;;;5090595;28;20207;-62
2023/03/29 10:01:19;;;;;;;5.33;4.83;;;18.70;44.20;;;;;;5105457;28;20303;-62
2023/03/29 10:03:53;;;;;;;6.53;5.47;;;18.70;43.90;;;;;;5069282;28;20200;-62
2023/03/29 10:06:25;;;;;;;5.47;4.97;;;18.70;43.40;;;;;;5076457;28;20211;-62
2023/03/29 10:08:58;;;;;;;4.83;4.30;;;18.60;43.50;;;;;;5081430;28;20232;-63
2023/03/29 10:11:37;;;;;;;6.77;4.73;;;18.70;43.30;;;;;;5083259;28;20303;-62
2023/03/29 10:14:11;;;;;;;4.77;3.73;;;18.80;44.70;;;;;;5091153;28;20204;-63
2023/03/29 10:16:41;;;;;;;7.13;4.53;;;18.90;44.20;;;;;;5092509;28;20223;-62
2023/03/29 10:19:21;;;;;;;5.70;4.40;;;18.90;43.20;;;;;;5092497;28;20245;-62
2023/03/29 10:21:51;;;;;;;3.90;2.90;;;18.80;44.20;;;;;;5091330;28;20199;-62
2023/03/29 10:24:20;;;;;;;4.27;3.37;;;18.80;43.30;;;;;;5106137;28;20303;-63
2023/03/29 10:26:54;;;;;;;4.60;3.60;;;18.60;42.80;;;;;;5091517;28;20211;-62
2023/03/29 10:29:24;;;;;;;6.90;4.07;;;18.50;43.20;;;;;;5089823;28;20210;-63
2023/03/29 10:31:51;;;;;;;4.23;3.50;;;18.40;43.90;;;;;;5091814;28;20509;-62
2023/03/29 10:34:24;;;;;;;6.27;3.37;;;18.50;44.60;;;;;;5089441;28;20283;-62
2023/03/29 10:36:58;;;;;;;5.07;3.60;;;18.60;44.30;;;;;;5091175;28;20215;-62
2023/03/29 10:39:31;;;;;;;4.70;3.80;;;18.60;43.10;;;;;;5090883;28;20594;-62
2023/03/29 10:42:00;;;;;;;4.70;3.87;;;18.60;43.40;;;;;;5091854;28;20196;-62
2023/03/29 10:44:33;;;;;;;6.20;3.50;;;18.50;43.00;;;;;;5089010;28;20203;-62
2023/03/29 10:47:15;;;;;;;9.50;3.70;;;18.50;43.30;;;;;;5090697;28;20227;-63
2023/03/29 10:49:54;;;;;;;5.53;3.40;;;18.50;44.20;;;;;;5088521;28;20571;-62
2023/03/29 10:52:24;;;;;;;4.50;3.57;;;18.60;43.00;;;;;;5090567;28;20769;-63
2023/03/29 10:54:53;;;;;;;6.83;3.43;;;18.60;44.20;;;;;;5090841;28;20296;-62
2023/03/29 10:57:50;;;;;;;5.17;3.03;;;18.70;44.90;;;;;;5091533;28;20220;-63
2023/03/29 11:00:28;;;;;;;3.57;3.27;;;18.90;45.00;;;;;;5088188;28;20290;-63
2023/03/29 11:03:26;;;;;;;5.27;3.47;;;19.10;44.80;;;;;;5087900;28;20196;-63
2023/03/29 11:06:06;;;;;;;7.43;3.33;;;19.30;44.30;;;;;;5086294;28;20295;-63
2023/03/29 11:08:45;;;;;;;5.47;4.33;;;19.50;43.30;;;;;;5090415;28;20196;-63
2023/03/29 11:11:31;;;;;;;7.00;4.00;;;19.50;43.40;;;;;;5090179;28;20223;-63
2023/03/29 11:14:07;;;;;;;7.43;4.43;;;19.50;44.30;;;;;;5089680;28;20200;-63
2023/03/29 11:16:40;;;;;;;6.63;4.80;;;19.40;43.10;;;;;;5089458;28;20216;-62
2023/03/29 11:19:37;;;;;;;6.33;4.17;;;19.40;42.80;;;;;;5090506;28;20258;-62
2023/03/29 11:22:15;;;;;;;5.90;4.30;;;19.20;41.90;;;;;;5081651;28;20225;-63
2023/03/29 11:25:21;;;;;;;7.33;4.80;;;19.10;42.10;;;;;;5091966;28;20281;-62
2023/03/29 11:28:03;;;;;;;7.00;4.37;;;19.20;43.00;;;;;;5081365;28;20250;-62
2023/03/29 11:30:39;;;;;;;6.63;4.57;;;19.30;43.30;;;;;;5094850;28;20207;-62
2023/03/29 11:33:27;;;;;;;7.60;4.43;;;19.20;42.10;;;;;;5095626;28;20214;-63
2023/03/29 11:36:23;;;;;;;9.97;4.17;;;19.10;43.00;;;;;;5092551;28;20201;-62
2023/03/29 11:39:14;;;;;;;7.57;5.13;;;19.20;43.30;;;;;;5090367;28;20542;-62
2023/03/29 11:41:47;;;;;;;10.83;5.03;;;19.20;45.70;;;;;;5094232;28;20197;-63
2023/03/29 11:44:23;;;;;;;6.70;3.93;;;19.10;45.20;;;;;;5092084;28;20631;-63
2023/03/29 11:47:16;;;;;;;5.10;4.23;;;19.10;45.50;;;;;;5094118;28;20233;-62
2023/03/29 11:49:50;;;;;;;6.37;4.20;;;19.20;46.00;;;;;;5094558;28;20222;-62
2023/03/29 11:52:34;;;;;;;6.27;4.60;;;19.40;45.50;;;;;;5094719;28;20199;-63
2023/03/29 11:55:22;;;;;;;7.47;3.80;;;19.60;46.00;;;;;;5080970;28;20213;-62
2023/03/29 11:57:55;;;;;;;6.40;4.50;;;20.00;45.20;;;;;;5095728;28;20212;-62
2023/03/29 12:00:26;;;;;;;7.23;4.37;;;20.30;44.20;;;;;;5089585;28;20212;-62
2023/03/29 12:03:23;;;;;;;10.03;4.73;;;20.60;43.70;;;;;;5090193;28;20694;-62
2023/03/29 12:05:58;;;;;;;5.07;4.53;;;20.70;43.00;;;;;;5081685;28;20208;-62
2023/03/29 12:08:32;;;;;;;6.57;4.47;;;20.80;42.00;;;;;;5092905;28;20512;-63
2023/03/29 12:11:11;;;;;;;7.53;4.93;;;20.90;41.90;;;;;;5090612;28;20228;-62
2023/03/29 12:14:14;;;;;;;7.47;4.60;;;20.80;42.10;;;;;;5094936;28;20311;-62
2023/03/29 12:16:59;;;;;;;6.90;4.37;;;20.70;42.00;;;;;;5086987;28;20711;-63
2023/03/29 12:19:36;;;;;;;5.17;3.60;;;20.60;42.20;;;;;;5093752;28;20205;-62
2023/03/29 12:22:09;;;;;;;8.27;4.50;;;20.40;43.20;;;;;;5087893;28;20641;-62
2023/03/29 12:24:42;;;;;;;7.90;4.50;;;20.30;43.60;;;;;;5092556;28;20231;-63
2023/03/29 12:28:05;;;;;;;5.07;4.57;;;20.20;42.70;;;;;;5093533;28;20577;-61
2023/03/29 12:30:37;;;;;;;5.87;4.47;;;20.10;42.60;;;;;;5068643;28;20692;-62
2023/03/29 12:33:22;;;;;;;7.37;4.57;;;20.00;44.30;;;;;;5090575;28;20201;-63
2023/03/29 12:36:20;;;;;;;6.03;4.83;;;20.00;44.50;;;;;;5093244;28;20562;-63
2023/03/29 12:39:23;;;;;;;7.77;4.90;;;19.90;45.40;;;;;;5052721;28;20658;-62
2023/03/29 12:42:13;;;;;;;6.13;4.73;;;19.90;44.80;;;;;;5092984;28;20314;-62
2023/03/29 12:45:00;;;;;;;6.33;4.90;;;19.80;44.20;;;;;;5093613;28;20236;-63
2023/03/29 12:47:42;;;;;;;8.70;5.30;;;19.70;43.20;;;;;;5093291;28;20200;-63
2023/03/29 12:50:32;;;;;;;9.53;4.70;;;19.50;43.80;;;;;;5092482;28;20200;-63
2023/03/29 12:53:14;;;;;;;10.00;4.80;;;19.50;44.70;;;;;;5091656;28;20220;-63
2023/03/29 12:55:41;;;;;;;10.33;5.07;;;19.50;44.30;;;;;;5091050;28;20209;-63
2023/03/29 12:58:39;;;;;;;8.93;5.10;;;19.60;43.60;;;;;;5091356;28;20222;-62
2023/03/29 13:01:29;;;;;;;6.70;4.77;;;19.80;43.30;;;;;;5091585;28;20225;-62
2023/03/29 13:04:17;;;;;;;7.67;4.70;;;19.90;44.00;;;;;;5090210;28;20203;-62
2023/03/29 13:06:48;;;;;;;8.90;4.10;;;20.10;44.00;;;;;;5092799;28;20216;-63
2023/03/29 13:09:20;;;;;;;6.40;4.47;;;20.40;43.90;;;;;;5089401;28;20205;-63
2023/03/29 13:12:19;;;;;;;5.37;4.30;;;20.60;43.40;;;;;;5093928;28;20205;-63
2023/03/29 13:14:51;;;;;;;7.73;4.70;;;20.70;42.50;;;;;;5082791;28;20224;-63
2023/03/29 13:17:57;;;;;;;6.93;4.53;;;20.70;40.70;;;;;;5094340;28;20216;-63
2023/03/29 13:20:36;;;;;;;7.30;4.63;;;20.60;40.10;;;;;;5086031;28;20299;-62
2023/03/29 13:23:27;;;;;;;5.07;3.93;;;20.40;41.40;;;;;;5091755;28;20197;-63
2023/03/29 13:26:24;;;;;;;9.70;3.87;;;20.00;41.20;;;;;;5087145;28;20288;-63
2023/03/29 13:28:54;;;;;;;11.87;3.80;;;19.80;42.30;;;;;;5071967;28;20207;-63
2023/03/29 13:31:55;;;;;;;4.93;3.77;;;19.70;43.70;;;;;;5105099;28;20201;-64
2023/03/29 13:35:02;;;;;;;6.30;4.10;;;19.80;44.00;;;;;;5088985;28;20212;-63
2023/03/29 13:37:45;;;;;;;4.47;3.67;;;20.00;44.10;;;;;;5091366;28;20240;-62
2023/03/29 13:40:43;;;;;;;7.57;3.63;;;20.10;42.10;;;;;;5091715;28;20189;-63
2023/03/29 13:43:19;;;;;;;6.43;3.60;;;20.20;42.60;;;;;;5092008;28;20192;-62
2023/03/29 13:45:55;;;;;;;8.00;4.20;;;20.20;42.50;;;;;;5092500;28;20243;-62